sensor_id;sensor_type;location;lat;lon;timestamp;temperature;humidity
54461;DHT22;40371;49.414;11.010;2023-04-25T00:00:26;9.80;99.90
54461;DHT22;40371;49.414;11.010;2023-04-25T00:02:52;9.90;99.90
54461;DHT22;40371;49.414;11.010;2023-04-25T00:05:17;9.80;99.90
54461;DHT22;40371;49.414;11.010;2023-04-25T00:07:43;9.80;99.90
54461;DHT22;40371;49.414;11.010;2023-04-25T00:10:10;9.80;99.90
54461;DHT22;40371;49.414;11.010;2023-04-25T00:12:37;9.80;99.90
54461;DHT22;40371;49.414;11.010;2023-04-25T00:15:03;9.80;99.90
54461;DHT22;40371;49.414;11.010;2023-04-25T00:17:29;9.80;99.90
54461;DHT22;40371;49.414;11.010;2023-04-25T00:19:54;9.80;99.90
54461;DHT22;40371;49.414;11.010;2023-04-25T00:22:21;9.80;99.90
54461;DHT22;40371;49.414;11.010;2023-04-25T00:24:47;9.90;99.90
54461;DHT22;40371;49.414;11.010;2023-04-25T00:27:12;9.80;99.90
54461;DHT22;40371;49.414;11.010;2023-04-25T00:29:38;9.70;99.90
54461;DHT22;40371;49.414;11.010;2023-04-25T00:32:04;9.60;99.90
54461;DHT22;40371;49.414;11.010;2023-04-25T00:34:29;9.70;99.90
54461;DHT22;40371;49.414;11.010;2023-04-25T00:36:55;9.60;99.90
54461;DHT22;40371;49.414;11.010;2023-04-25T00:39:20;9.50;99.90
54461;DHT22;40371;49.414;11.010;2023-04-25T00:41:46;9.40;99.90
54461;DHT22;40371;49.414;11.010;2023-04-25T00:44:15;9.40;99.90
54461;DHT22;40371;49.414;11.010;2023-04-25T00:46:42;9.40;99.90
54461;DHT22;40371;49.414;11.010;2023-04-25T00:49:08;9.40;99.90
54461;DHT22;40371;49.414;11.010;2023-04-25T00:51:34;9.40;99.90
54461;DHT22;40371;49.414;11.010;2023-04-25T00:54:01;9.40;99.90
54461;DHT22;40371;49.414;11.010;2023-04-25T00:56:27;9.50;99.90
54461;DHT22;40371;49.414;11.010;2023-04-25T00:58:53;9.40;99.90
54461;DHT22;40371;49.414;11.010;2023-04-25T01:01:22;9.40;99.90
54461;DHT22;40371;49.414;11.010;2023-04-25T01:03:49;9.40;99.90
54461;DHT22;40371;49.414;11.010;2023-04-25T01:06:16;9.50;99.90
54461;DHT22;40371;49.414;11.010;2023-04-25T01:08:42;9.40;99.90
54461;DHT22;40371;49.414;11.010;2023-04-25T01:11:08;9.40;99.90
54461;DHT22;40371;49.414;11.010;2023-04-25T01:13:34;9.40;99.90
54461;DHT22;40371;49.414;11.010;2023-04-25T01:16:01;9.40;99.90
54461;DHT22;40371;49.414;11.010;2023-04-25T01:18:27;9.40;99.90
54461;DHT22;40371;49.414;11.010;2023-04-25T01:20:54;9.40;99.90
54461;DHT22;40371;49.414;11.010;2023-04-25T01:23:21;9.40;99.90
54461;DHT22;40371;49.414;11.010;2023-04-25T01:25:48;9.40;99.90
54461;DHT22;40371;49.414;11.010;2023-04-25T01:28:14;9.40;99.90
54461;DHT22;40371;49.414;11.010;2023-04-25T01:30:40;9.40;99.90
54461;DHT22;40371;49.414;11.010;2023-04-25T01:33:07;9.40;99.90
54461;DHT22;40371;49.414;11.010;2023-04-25T01:35:33;9.50;99.90
54461;DHT22;40371;49.414;11.010;2023-04-25T01:38:00;9.50;99.90
54461;DHT22;40371;49.414;11.010;2023-04-25T01:40:27;9.50;99.90
54461;DHT22;40371;49.414;11.010;2023-04-25T01:42:53;9.40;99.90
54461;DHT22;40371;49.414;11.010;2023-04-25T01:45:19;9.30;99.90
54461;DHT22;40371;49.414;11.010;2023-04-25T01:47:45;9.30;99.90
54461;DHT22;40371;49.414;11.010;2023-04-25T01:50:17;9.40;99.90
54461;DHT22;40371;49.414;11.010;2023-04-25T01:52:43;9.50;99.90
54461;DHT22;40371;49.414;11.010;2023-04-25T01:55:09;9.40;99.90
54461;DHT22;40371;49.414;11.010;2023-04-25T01:57:37;9.30;99.90
54461;DHT22;40371;49.414;11.010;2023-04-25T02:00:05;9.30;99.90
54461;DHT22;40371;49.414;11.010;2023-04-25T02:02:38;9.30;99.90
54461;DHT22;40371;49.414;11.010;2023-04-25T02:05:06;9.20;99.90
54461;DHT22;40371;49.414;11.010;2023-04-25T02:07:35;9.40;99.90
54461;DHT22;40371;49.414;11.010;2023-04-25T02:10:01;9.40;99.90
54461;DHT22;40371;49.414;11.010;2023-04-25T02:12:31;9.30;99.90
54461;DHT22;40371;49.414;11.010;2023-04-25T02:15:12;9.30;99.90
54461;DHT22;40371;49.414;11.010;2023-04-25T02:17:49;9.20;99.90
54461;DHT22;40371;49.414;11.010;2023-04-25T02:20:15;9.10;99.90
54461;DHT22;40371;49.414;11.010;2023-04-25T02:22:43;9.20;99.90
54461;DHT22;40371;49.414;11.010;2023-04-25T02:25:09;9.30;99.90
54461;DHT22;40371;49.414;11.010;2023-04-25T02:27:35;9.50;99.90
54461;DHT22;40371;49.414;11.010;2023-04-25T02:30:01;9.40;99.90
54461;DHT22;40371;49.414;11.010;2023-04-25T02:32:27;9.70;99.90
54461;DHT22;40371;49.414;11.010;2023-04-25T02:34:52;9.70;99.90
54461;DHT22;40371;49.414;11.010;2023-04-25T02:37:19;9.70;99.90
54461;DHT22;40371;49.414;11.010;2023-04-25T02:39:44;9.40;99.90
54461;DHT22;40371;49.414;11.010;2023-04-25T02:42:11;9.40;99.90
54461;DHT22;40371;49.414;11.010;2023-04-25T02:44:37;9.20;99.90
54461;DHT22;40371;49.414;11.010;2023-04-25T02:47:04;9.10;99.90
54461;DHT22;40371;49.414;11.010;2023-04-25T02:49:30;9.10;99.90
54461;DHT22;40371;49.414;11.010;2023-04-25T02:51:55;9.20;99.90
54461;DHT22;40371;49.414;11.010;2023-04-25T02:54:21;9.10;99.90
54461;DHT22;40371;49.414;11.010;2023-04-25T02:56:47;9.10;99.90
54461;DHT22;40371;49.414;11.010;2023-04-25T02:59:18;9.20;99.90
54461;DHT22;40371;49.414;11.010;2023-04-25T03:01:44;9.00;99.90
54461;DHT22;40371;49.414;11.010;2023-04-25T03:04:10;9.00;99.90
54461;DHT22;40371;49.414;11.010;2023-04-25T03:06:36;9.00;99.90
54461;DHT22;40371;49.414;11.010;2023-04-25T03:09:01;9.10;99.90
54461;DHT22;40371;49.414;11.010;2023-04-25T03:11:28;9.10;99.90
54461;DHT22;40371;49.414;11.010;2023-04-25T03:13:53;8.90;99.90
54461;DHT22;40371;49.414;11.010;2023-04-25T03:16:19;9.00;99.90
54461;DHT22;40371;49.414;11.010;2023-04-25T03:18:45;9.00;99.90
54461;DHT22;40371;49.414;11.010;2023-04-25T03:21:11;8.90;99.90
54461;DHT22;40371;49.414;11.010;2023-04-25T03:23:36;8.80;99.90
54461;DHT22;40371;49.414;11.010;2023-04-25T03:26:02;8.80;99.90
54461;DHT22;40371;49.414;11.010;2023-04-25T03:28:27;8.90;99.90
54461;DHT22;40371;49.414;11.010;2023-04-25T03:30:55;8.90;99.90
54461;DHT22;40371;49.414;11.010;2023-04-25T03:33:20;8.80;99.90
54461;DHT22;40371;49.414;11.010;2023-04-25T03:35:46;8.80;99.90
54461;DHT22;40371;49.414;11.010;2023-04-25T03:38:12;8.80;99.90
54461;DHT22;40371;49.414;11.010;2023-04-25T03:40:39;9.00;99.90
54461;DHT22;40371;49.414;11.010;2023-04-25T03:43:24;9.20;99.90
54461;DHT22;40371;49.414;11.010;2023-04-25T03:45:58;9.10;99.90
54461;DHT22;40371;49.414;11.010;2023-04-25T03:48:25;8.90;99.90
54461;DHT22;40371;49.414;11.010;2023-04-25T03:50:53;8.90;99.90
54461;DHT22;40371;49.414;11.010;2023-04-25T03:53:19;8.80;99.90
54461;DHT22;40371;49.414;11.010;2023-04-25T03:56:04;8.70;99.90
54461;DHT22;40371;49.414;11.010;2023-04-25T03:58:32;8.70;99.90
54461;DHT22;40371;49.414;11.010;2023-04-25T04:00:58;8.70;99.90
54461;DHT22;40371;49.414;11.010;2023-04-25T04:03:24;8.60;99.90
54461;DHT22;40371;49.414;11.010;2023-04-25T04:05:50;8.60;99.90
54461;DHT22;40371;49.414;11.010;2023-04-25T04:08:16;8.70;99.90
54461;DHT22;40371;49.414;11.010;2023-04-25T04:10:42;8.60;99.90
54461;DHT22;40371;49.414;11.010;2023-04-25T04:13:08;8.60;99.90
54461;DHT22;40371;49.414;11.010;2023-04-25T04:15:34;8.60;99.90
54461;DHT22;40371;49.414;11.010;2023-04-25T04:17:59;8.60;99.90
54461;DHT22;40371;49.414;11.010;2023-04-25T04:20:29;8.70;99.90
54461;DHT22;40371;49.414;11.010;2023-04-25T04:22:55;8.70;99.90
54461;DHT22;40371;49.414;11.010;2023-04-25T04:25:22;8.60;99.90
54461;DHT22;40371;49.414;11.010;2023-04-25T04:28:17;8.70;99.90
54461;DHT22;40371;49.414;11.010;2023-04-25T04:30:50;8.70;99.90
54461;DHT22;40371;49.414;11.010;2023-04-25T04:33:17;8.70;99.90
54461;DHT22;40371;49.414;11.010;2023-04-25T04:35:46;8.80;99.90
54461;DHT22;40371;49.414;11.010;2023-04-25T04:38:13;8.80;99.90
54461;DHT22;40371;49.414;11.010;2023-04-25T04:40:41;8.80;99.90
54461;DHT22;40371;49.414;11.010;2023-04-25T04:43:23;8.80;99.90
54461;DHT22;40371;49.414;11.010;2023-04-25T04:46:10;8.80;99.90
54461;DHT22;40371;49.414;11.010;2023-04-25T04:48:55;8.80;99.90
54461;DHT22;40371;49.414;11.010;2023-04-25T04:51:44;8.80;99.90
54461;DHT22;40371;49.414;11.010;2023-04-25T04:54:28;8.90;99.90
54461;DHT22;40371;49.414;11.010;2023-04-25T04:57:09;8.90;99.90
54461;DHT22;40371;49.414;11.010;2023-04-25T04:59:54;8.90;99.90
54461;DHT22;40371;49.414;11.010;2023-04-25T05:02:56;8.90;99.90
54461;DHT22;40371;49.414;11.010;2023-04-25T05:05:40;8.90;99.90
54461;DHT22;40371;49.414;11.010;2023-04-25T05:08:24;9.00;99.90
54461;DHT22;40371;49.414;11.010;2023-04-25T05:11:06;9.00;99.90
54461;DHT22;40371;49.414;11.010;2023-04-25T05:13:51;9.00;99.90
54461;DHT22;40371;49.414;11.010;2023-04-25T05:16:35;9.10;99.90
54461;DHT22;40371;49.414;11.010;2023-04-25T05:19:20;9.20;99.90
54461;DHT22;40371;49.414;11.010;2023-04-25T05:21:55;9.20;99.90
54461;DHT22;40371;49.414;11.010;2023-04-25T05:24:29;9.30;99.90
54461;DHT22;40371;49.414;11.010;2023-04-25T05:27:19;9.30;99.90
54461;DHT22;40371;49.414;11.010;2023-04-25T05:30:04;9.30;99.90
54461;DHT22;40371;49.414;11.010;2023-04-25T05:32:45;9.30;99.90
54461;DHT22;40371;49.414;11.010;2023-04-25T05:35:12;9.30;99.90
54461;DHT22;40371;49.414;11.010;2023-04-25T05:37:45;9.30;99.90
54461;DHT22;40371;49.414;11.010;2023-04-25T05:40:13;9.40;99.90
54461;DHT22;40371;49.414;11.010;2023-04-25T05:42:44;9.30;99.90
54461;DHT22;40371;49.414;11.010;2023-04-25T05:45:22;9.30;99.90
54461;DHT22;40371;49.414;11.010;2023-04-25T05:48:05;9.30;99.90
54461;DHT22;40371;49.414;11.010;2023-04-25T05:50:49;9.30;99.90
54461;DHT22;40371;49.414;11.010;2023-04-25T05:53:43;9.30;99.90
54461;DHT22;40371;49.414;11.010;2023-04-25T05:56:08;9.30;99.90
54461;DHT22;40371;49.414;11.010;2023-04-25T05:58:34;9.40;99.90
54461;DHT22;40371;49.414;11.010;2023-04-25T06:01:00;9.40;99.90
54461;DHT22;40371;49.414;11.010;2023-04-25T06:03:25;9.30;99.90
54461;DHT22;40371;49.414;11.010;2023-04-25T06:05:51;9.40;99.90
54461;DHT22;40371;49.414;11.010;2023-04-25T06:08:18;9.30;99.90
54461;DHT22;40371;49.414;11.010;2023-04-25T06:10:44;9.30;99.90
54461;DHT22;40371;49.414;11.010;2023-04-25T06:13:10;9.30;99.90
54461;DHT22;40371;49.414;11.010;2023-04-25T06:15:36;9.30;99.90
54461;DHT22;40371;49.414;11.010;2023-04-25T06:18:01;9.30;99.90
54461;DHT22;40371;49.414;11.010;2023-04-25T06:20:27;9.30;99.90
54461;DHT22;40371;49.414;11.010;2023-04-25T06:22:56;9.30;99.90
54461;DHT22;40371;49.414;11.010;2023-04-25T06:25:30;9.30;99.90
54461;DHT22;40371;49.414;11.010;2023-04-25T06:27:56;9.50;99.90
54461;DHT22;40371;49.414;11.010;2023-04-25T06:30:23;9.50;99.90
54461;DHT22;40371;49.414;11.010;2023-04-25T06:32:53;9.40;99.90
54461;DHT22;40371;49.414;11.010;2023-04-25T06:35:19;9.30;99.90
54461;DHT22;40371;49.414;11.010;2023-04-25T06:37:45;9.30;99.90
54461;DHT22;40371;49.414;11.010;2023-04-25T06:40:11;9.20;99.90
54461;DHT22;40371;49.414;11.010;2023-04-25T06:42:36;9.10;99.90
54461;DHT22;40371;49.414;11.010;2023-04-25T06:45:22;9.00;99.90
54461;DHT22;40371;49.414;11.010;2023-04-25T06:47:47;9.00;99.90
54461;DHT22;40371;49.414;11.010;2023-04-25T06:50:13;9.00;99.90
54461;DHT22;40371;49.414;11.010;2023-04-25T06:52:39;9.00;99.90
54461;DHT22;40371;49.414;11.010;2023-04-25T06:55:05;8.90;99.90
54461;DHT22;40371;49.414;11.010;2023-04-25T06:57:48;8.90;99.90
54461;DHT22;40371;49.414;11.010;2023-04-25T07:00:42;8.90;99.90
54461;DHT22;40371;49.414;11.010;2023-04-25T07:03:08;9.00;99.90
54461;DHT22;40371;49.414;11.010;2023-04-25T07:05:34;9.00;99.90
54461;DHT22;40371;49.414;11.010;2023-04-25T07:08:00;9.00;99.90
54461;DHT22;40371;49.414;11.010;2023-04-25T07:10:26;8.90;99.90
54461;DHT22;40371;49.414;11.010;2023-04-25T07:12:52;9.00;99.90
54461;DHT22;40371;49.414;11.010;2023-04-25T07:15:18;9.00;99.90
54461;DHT22;40371;49.414;11.010;2023-04-25T07:17:46;9.00;99.90
54461;DHT22;40371;49.414;11.010;2023-04-25T07:20:12;9.10;99.90
54461;DHT22;40371;49.414;11.010;2023-04-25T07:22:38;9.10;99.90
54461;DHT22;40371;49.414;11.010;2023-04-25T07:25:04;9.30;99.90
54461;DHT22;40371;49.414;11.010;2023-04-25T07:27:31;9.40;99.90
54461;DHT22;40371;49.414;11.010;2023-04-25T07:30:06;9.40;99.90
54461;DHT22;40371;49.414;11.010;2023-04-25T07:32:32;9.40;99.90
54461;DHT22;40371;49.414;11.010;2023-04-25T07:34:57;9.30;99.90
54461;DHT22;40371;49.414;11.010;2023-04-25T07:37:23;9.30;99.90
54461;DHT22;40371;49.414;11.010;2023-04-25T07:40:03;9.20;99.90
54461;DHT22;40371;49.414;11.010;2023-04-25T07:42:32;9.10;99.90
54461;DHT22;40371;49.414;11.010;2023-04-25T07:44:58;9.10;99.90
54461;DHT22;40371;49.414;11.010;2023-04-25T07:47:23;9.00;99.90
54461;DHT22;40371;49.414;11.010;2023-04-25T07:49:49;9.00;99.90
54461;DHT22;40371;49.414;11.010;2023-04-25T07:52:14;9.10;99.90
54461;DHT22;40371;49.414;11.010;2023-04-25T07:54:47;9.00;99.90
54461;DHT22;40371;49.414;11.010;2023-04-25T07:57:17;9.00;99.90
54461;DHT22;40371;49.414;11.010;2023-04-25T07:59:44;9.00;99.90
54461;DHT22;40371;49.414;11.010;2023-04-25T08:02:10;8.90;99.90
54461;DHT22;40371;49.414;11.010;2023-04-25T08:04:38;8.90;99.90
54461;DHT22;40371;49.414;11.010;2023-04-25T08:07:07;8.80;99.90
54461;DHT22;40371;49.414;11.010;2023-04-25T08:09:44;8.70;99.90
54461;DHT22;40371;49.414;11.010;2023-04-25T08:12:17;8.70;99.90
54461;DHT22;40371;49.414;11.010;2023-04-25T08:14:43;8.80;99.90
54461;DHT22;40371;49.414;11.010;2023-04-25T08:17:10;8.90;99.90
54461;DHT22;40371;49.414;11.010;2023-04-25T08:19:39;9.00;99.90
54461;DHT22;40371;49.414;11.010;2023-04-25T08:22:06;8.90;99.90
54461;DHT22;40371;49.414;11.010;2023-04-25T08:24:42;9.00;99.90
54461;DHT22;40371;49.414;11.010;2023-04-25T08:27:08;9.00;99.90
54461;DHT22;40371;49.414;11.010;2023-04-25T08:29:34;9.30;99.90
54461;DHT22;40371;49.414;11.010;2023-04-25T08:32:00;9.50;99.90
54461;DHT22;40371;49.414;11.010;2023-04-25T08:34:27;9.60;99.90
54461;DHT22;40371;49.414;11.010;2023-04-25T08:36:53;9.60;99.90
54461;DHT22;40371;49.414;11.010;2023-04-25T08:39:39;9.80;99.90
54461;DHT22;40371;49.414;11.010;2023-04-25T08:42:27;10.00;99.90
54461;DHT22;40371;49.414;11.010;2023-04-25T08:44:55;10.30;99.90
54461;DHT22;40371;49.414;11.010;2023-04-25T08:47:24;10.30;99.90
54461;DHT22;40371;49.414;11.010;2023-04-25T08:49:56;10.40;99.90
54461;DHT22;40371;49.414;11.010;2023-04-25T08:52:23;10.60;99.90
54461;DHT22;40371;49.414;11.010;2023-04-25T08:54:51;10.50;99.90
54461;DHT22;40371;49.414;11.010;2023-04-25T08:57:19;10.80;99.90
54461;DHT22;40371;49.414;11.010;2023-04-25T08:59:47;11.00;99.90
54461;DHT22;40371;49.414;11.010;2023-04-25T09:02:15;10.60;99.90
54461;DHT22;40371;49.414;11.010;2023-04-25T09:04:44;10.70;99.90
54461;DHT22;40371;49.414;11.010;2023-04-25T09:07:10;10.70;99.90
54461;DHT22;40371;49.414;11.010;2023-04-25T09:09:37;10.40;99.90
54461;DHT22;40371;49.414;11.010;2023-04-25T09:12:03;10.30;99.90
54461;DHT22;40371;49.414;11.010;2023-04-25T09:14:29;10.10;99.90
54461;DHT22;40371;49.414;11.010;2023-04-25T09:17:10;10.00;99.90
54461;DHT22;40371;49.414;11.010;2023-04-25T09:19:41;9.90;99.90
54461;DHT22;40371;49.414;11.010;2023-04-25T09:22:17;9.90;99.90
54461;DHT22;40371;49.414;11.010;2023-04-25T09:24:46;10.20;99.90
54461;DHT22;40371;49.414;11.010;2023-04-25T09:27:18;10.40;99.90
54461;DHT22;40371;49.414;11.010;2023-04-25T09:29:45;11.30;99.90
54461;DHT22;40371;49.414;11.010;2023-04-25T09:32:23;12.40;99.90
54461;DHT22;40371;49.414;11.010;2023-04-25T09:34:56;13.20;99.90
54461;DHT22;40371;49.414;11.010;2023-04-25T09:37:29;12.90;99.90
54461;DHT22;40371;49.414;11.010;2023-04-25T09:40:06;12.90;99.90
54461;DHT22;40371;49.414;11.010;2023-04-25T09:42:35;13.60;99.90
54461;DHT22;40371;49.414;11.010;2023-04-25T09:45:03;14.60;99.90
54461;DHT22;40371;49.414;11.010;2023-04-25T09:47:37;14.80;99.90
54461;DHT22;40371;49.414;11.010;2023-04-25T09:50:16;13.50;99.90
54461;DHT22;40371;49.414;11.010;2023-04-25T09:52:45;12.60;99.90
54461;DHT22;40371;49.414;11.010;2023-04-25T09:55:19;12.00;99.90
54461;DHT22;40371;49.414;11.010;2023-04-25T09:57:48;11.80;99.90
54461;DHT22;40371;49.414;11.010;2023-04-25T10:00:18;11.60;99.90
54461;DHT22;40371;49.414;11.010;2023-04-25T10:02:47;11.60;99.90
54461;DHT22;40371;49.414;11.010;2023-04-25T10:05:34;11.40;99.90
54461;DHT22;40371;49.414;11.010;2023-04-25T10:08:02;11.50;99.90
54461;DHT22;40371;49.414;11.010;2023-04-25T10:10:30;12.30;99.90
54461;DHT22;40371;49.414;11.010;2023-04-25T10:12:58;13.20;99.90
54461;DHT22;40371;49.414;11.010;2023-04-25T10:15:25;13.30;99.90
54461;DHT22;40371;49.414;11.010;2023-04-25T10:17:51;12.70;99.90
54461;DHT22;40371;49.414;11.010;2023-04-25T10:20:17;12.30;99.90
54461;DHT22;40371;49.414;11.010;2023-04-25T10:22:44;12.50;99.90
54461;DHT22;40371;49.414;11.010;2023-04-25T10:25:11;12.60;99.90
54461;DHT22;40371;49.414;11.010;2023-04-25T10:27:38;12.50;99.90
54461;DHT22;40371;49.414;11.010;2023-04-25T10:30:24;12.60;99.90
54461;DHT22;40371;49.414;11.010;2023-04-25T10:32:50;12.50;99.90
54461;DHT22;40371;49.414;11.010;2023-04-25T10:35:27;12.30;99.90
54461;DHT22;40371;49.414;11.010;2023-04-25T10:38:09;12.50;99.90
54461;DHT22;40371;49.414;11.010;2023-04-25T10:40:35;12.50;99.90
54461;DHT22;40371;49.414;11.010;2023-04-25T10:43:33;12.50;99.90
54461;DHT22;40371;49.414;11.010;2023-04-25T10:46:02;12.50;99.90
54461;DHT22;40371;49.414;11.010;2023-04-25T10:48:29;13.10;99.90
54461;DHT22;40371;49.414;11.010;2023-04-25T10:51:11;14.20;99.90
54461;DHT22;40371;49.414;11.010;2023-04-25T10:53:37;17.40;99.90
54461;DHT22;40371;49.414;11.010;2023-04-25T10:56:19;19.90;97.80
54461;DHT22;40371;49.414;11.010;2023-04-25T10:58:45;20.80;88.40
54461;DHT22;40371;49.414;11.010;2023-04-25T11:01:16;19.40;83.60
54461;DHT22;40371;49.414;11.010;2023-04-25T11:03:44;17.80;90.80
54461;DHT22;40371;49.414;11.010;2023-04-25T11:08:53;15.10;94.30
54461;DHT22;40371;49.414;11.010;2023-04-25T11:11:19;14.70;96.10
54461;DHT22;40371;49.414;11.010;2023-04-25T11:13:49;16.20;95.00
54461;DHT22;40371;49.414;11.010;2023-04-25T11:16:16;18.70;90.20
54461;DHT22;40371;49.414;11.010;2023-04-25T11:18:42;19.40;85.20
54461;DHT22;40371;49.414;11.010;2023-04-25T11:21:09;17.10;87.50
54461;DHT22;40371;49.414;11.010;2023-04-25T11:23:35;15.70;90.30
54461;DHT22;40371;49.414;11.010;2023-04-25T11:26:05;14.90;91.80
54461;DHT22;40371;49.414;11.010;2023-04-25T11:28:31;14.40;93.20
54461;DHT22;40371;49.414;11.010;2023-04-25T11:30:56;14.10;94.70
54461;DHT22;40371;49.414;11.010;2023-04-25T11:33:26;14.10;95.10
54461;DHT22;40371;49.414;11.010;2023-04-25T11:35:55;14.00;95.50
54461;DHT22;40371;49.414;11.010;2023-04-25T11:38:22;14.00;95.10
54461;DHT22;40371;49.414;11.010;2023-04-25T11:40:55;14.00;94.50
54461;DHT22;40371;49.414;11.010;2023-04-25T11:43:21;13.80;94.20
54461;DHT22;40371;49.414;11.010;2023-04-25T11:45:49;13.80;94.70
54461;DHT22;40371;49.414;11.010;2023-04-25T11:48:15;13.60;93.90
54461;DHT22;40371;49.414;11.010;2023-04-25T11:50:41;13.50;93.90
54461;DHT22;40371;49.414;11.010;2023-04-25T11:53:06;13.70;94.40
54461;DHT22;40371;49.414;11.010;2023-04-25T11:55:33;14.70;93.70
54461;DHT22;40371;49.414;11.010;2023-04-25T11:58:00;16.20;91.40
54461;DHT22;40371;49.414;11.010;2023-04-25T12:00:27;15.90;90.20
54461;DHT22;40371;49.414;11.010;2023-04-25T12:02:53;15.60;91.00
54461;DHT22;40371;49.414;11.010;2023-04-25T12:05:23;15.40;91.50
54461;DHT22;40371;49.414;11.010;2023-04-25T12:07:49;15.70;91.70
54461;DHT22;40371;49.414;11.010;2023-04-25T12:10:16;15.40;88.60
54461;DHT22;40371;49.414;11.010;2023-04-25T12:12:43;14.90;88.10
54461;DHT22;40371;49.414;11.010;2023-04-25T12:15:14;14.90;88.80
54461;DHT22;40371;49.414;11.010;2023-04-25T12:17:42;14.90;88.40
54461;DHT22;40371;49.414;11.010;2023-04-25T12:20:13;14.80;89.80
54461;DHT22;40371;49.414;11.010;2023-04-25T12:22:41;14.90;89.50
54461;DHT22;40371;49.414;11.010;2023-04-25T12:25:10;14.90;90.40
54461;DHT22;40371;49.414;11.010;2023-04-25T12:27:36;14.80;89.40
54461;DHT22;40371;49.414;11.010;2023-04-25T12:30:02;14.60;90.60
54461;DHT22;40371;49.414;11.010;2023-04-25T12:32:29;14.10;90.10
54461;DHT22;40371;49.414;11.010;2023-04-25T12:34:54;14.10;90.50
54461;DHT22;40371;49.414;11.010;2023-04-25T12:37:21;14.20;90.90
54461;DHT22;40371;49.414;11.010;2023-04-25T12:39:46;14.70;90.80
54461;DHT22;40371;49.414;11.010;2023-04-25T12:42:12;14.70;91.20
54461;DHT22;40371;49.414;11.010;2023-04-25T12:44:38;14.90;91.70
54461;DHT22;40371;49.414;11.010;2023-04-25T12:47:04;14.90;90.70
54461;DHT22;40371;49.414;11.010;2023-04-25T12:49:30;14.50;91.10
54461;DHT22;40371;49.414;11.010;2023-04-25T12:51:56;13.90;91.50
54461;DHT22;40371;49.414;11.010;2023-04-25T12:54:21;13.50;92.20
54461;DHT22;40371;49.414;11.010;2023-04-25T12:56:50;13.40;93.00
54461;DHT22;40371;49.414;11.010;2023-04-25T12:59:16;13.20;93.00
54461;DHT22;40371;49.414;11.010;2023-04-25T13:01:42;13.00;93.20
54461;DHT22;40371;49.414;11.010;2023-04-25T13:04:08;13.10;94.10
54461;DHT22;40371;49.414;11.010;2023-04-25T13:06:33;13.10;94.60
54461;DHT22;40371;49.414;11.010;2023-04-25T13:08:59;13.10;95.40
54461;DHT22;40371;49.414;11.010;2023-04-25T13:11:25;12.90;94.70
54461;DHT22;40371;49.414;11.010;2023-04-25T13:13:50;13.10;95.00
54461;DHT22;40371;49.414;11.010;2023-04-25T13:16:16;13.20;95.40
54461;DHT22;40371;49.414;11.010;2023-04-25T13:18:42;13.30;95.50
54461;DHT22;40371;49.414;11.010;2023-04-25T13:21:09;13.40;95.00
54461;DHT22;40371;49.414;11.010;2023-04-25T13:23:36;13.40;94.60
54461;DHT22;40371;49.414;11.010;2023-04-25T13:26:01;13.30;94.80
54461;DHT22;40371;49.414;11.010;2023-04-25T13:28:28;13.60;94.80
54461;DHT22;40371;49.414;11.010;2023-04-25T13:30:53;13.50;94.10
54461;DHT22;40371;49.414;11.010;2023-04-25T13:33:19;13.40;94.90
54461;DHT22;40371;49.414;11.010;2023-04-25T13:35:46;13.50;95.30
54461;DHT22;40371;49.414;11.010;2023-04-25T13:38:23;13.40;95.20
54461;DHT22;40371;49.414;11.010;2023-04-25T13:40:49;13.40;95.20
54461;DHT22;40371;49.414;11.010;2023-04-25T13:43:15;13.40;94.90
54461;DHT22;40371;49.414;11.010;2023-04-25T13:45:41;13.40;94.90
54461;DHT22;40371;49.414;11.010;2023-04-25T13:48:07;13.40;95.10
54461;DHT22;40371;49.414;11.010;2023-04-25T13:50:32;13.40;95.50
54461;DHT22;40371;49.414;11.010;2023-04-25T13:52:58;13.20;95.50
54461;DHT22;40371;49.414;11.010;2023-04-25T13:55:24;13.10;95.80
54461;DHT22;40371;49.414;11.010;2023-04-25T13:57:49;12.90;96.00
54461;DHT22;40371;49.414;11.010;2023-04-25T14:00:15;12.90;96.60
54461;DHT22;40371;49.414;11.010;2023-04-25T14:02:41;12.90;97.50
54461;DHT22;40371;49.414;11.010;2023-04-25T14:05:07;12.70;98.40
54461;DHT22;40371;49.414;11.010;2023-04-25T14:07:34;12.50;99.40
54461;DHT22;40371;49.414;11.010;2023-04-25T14:10:00;12.60;99.90
54461;DHT22;40371;49.414;11.010;2023-04-25T14:12:26;12.70;98.80
54461;DHT22;40371;49.414;11.010;2023-04-25T14:14:51;12.80;98.50
54461;DHT22;40371;49.414;11.010;2023-04-25T14:17:18;12.80;98.20
54461;DHT22;40371;49.414;11.010;2023-04-25T14:19:44;12.80;98.50
54461;DHT22;40371;49.414;11.010;2023-04-25T14:22:11;12.70;98.30
54461;DHT22;40371;49.414;11.010;2023-04-25T14:24:36;12.50;97.90
54461;DHT22;40371;49.414;11.010;2023-04-25T14:27:02;12.40;98.30
54461;DHT22;40371;49.414;11.010;2023-04-25T14:29:28;12.40;98.90
54461;DHT22;40371;49.414;11.010;2023-04-25T14:31:53;12.50;99.10
54461;DHT22;40371;49.414;11.010;2023-04-25T14:34:19;12.40;99.80
54461;DHT22;40371;49.414;11.010;2023-04-25T14:36:45;12.30;99.50
54461;DHT22;40371;49.414;11.010;2023-04-25T14:39:12;12.20;99.90
54461;DHT22;40371;49.414;11.010;2023-04-25T14:41:39;12.20;99.90
54461;DHT22;40371;49.414;11.010;2023-04-25T14:44:05;12.00;99.90
54461;DHT22;40371;49.414;11.010;2023-04-25T14:46:30;11.80;99.90
54461;DHT22;40371;49.414;11.010;2023-04-25T14:48:56;11.70;99.90
54461;DHT22;40371;49.414;11.010;2023-04-25T14:51:21;11.60;99.90
54461;DHT22;40371;49.414;11.010;2023-04-25T14:53:47;11.60;99.90
54461;DHT22;40371;49.414;11.010;2023-04-25T14:56:13;11.70;99.90
54461;DHT22;40371;49.414;11.010;2023-04-25T14:58:39;11.80;99.90
54461;DHT22;40371;49.414;11.010;2023-04-25T15:01:05;11.90;99.90
54461;DHT22;40371;49.414;11.010;2023-04-25T15:03:32;12.10;99.90
54461;DHT22;40371;49.414;11.010;2023-04-25T15:05:57;12.30;99.90
54461;DHT22;40371;49.414;11.010;2023-04-25T15:08:23;12.30;99.90
54461;DHT22;40371;49.414;11.010;2023-04-25T15:10:49;12.40;99.90
54461;DHT22;40371;49.414;11.010;2023-04-25T15:13:14;12.40;99.90
54461;DHT22;40371;49.414;11.010;2023-04-25T15:15:41;12.50;99.90
54461;DHT22;40371;49.414;11.010;2023-04-25T15:18:06;12.50;99.90
54461;DHT22;40371;49.414;11.010;2023-04-25T15:20:32;12.50;99.90
54461;DHT22;40371;49.414;11.010;2023-04-25T15:22:58;12.60;99.90
54461;DHT22;40371;49.414;11.010;2023-04-25T15:25:23;12.60;99.90
54461;DHT22;40371;49.414;11.010;2023-04-25T15:27:49;12.50;99.90
54461;DHT22;40371;49.414;11.010;2023-04-25T15:30:17;12.30;99.90
54461;DHT22;40371;49.414;11.010;2023-04-25T15:32:44;12.20;99.90
54461;DHT22;40371;49.414;11.010;2023-04-25T15:35:10;12.30;99.90
54461;DHT22;40371;49.414;11.010;2023-04-25T15:37:36;12.30;99.90